createdAt,value
2023-05-19T00:01:00.917Z,159200.44
2023-05-19T00:03:30.558Z,159181.75
2023-05-19T00:05:59.251Z,159171.09
2023-05-19T00:08:33.351Z,159141.75
2023-05-19T00:11:01.971Z,159121.75
2023-05-19T00:13:30.274Z,159101.72
2023-05-19T00:15:58.136Z,159109.72
2023-05-19T00:18:26.706Z,159099.03
2023-05-19T00:20:54.488Z,159085.75
2023-05-19T00:23:22.814Z,159076.38
2023-05-19T00:25:50.275Z,159071.06
2023-05-19T00:28:18.475Z,159073.72
2023-05-19T00:30:46.331Z,159085.75
2023-05-19T00:33:14.610Z,159099.03
2023-05-19T00:35:42.319Z,159104.38
2023-05-19T00:38:10.642Z,159104.38
2023-05-19T00:40:38.541Z,159108.41
2023-05-19T00:43:08.564Z,159113.75
2023-05-19T00:45:36.820Z,159125.72
2023-05-19T00:48:06.488Z,159127.03
2023-05-19T00:50:34.745Z,159123.06
2023-05-19T00:53:03.146Z,159131.06
2023-05-19T00:55:32.617Z,159136.41
2023-05-19T00:58:01.220Z,159140.38
2023-05-19T01:00:30.386Z,159139.06
2023-05-19T01:02:58.794Z,159143.09
2023-05-19T01:05:27.280Z,159148.38
2023-05-19T01:07:56.911Z,159124.38
2023-05-19T01:10:25.602Z,159111.03
2023-05-19T01:12:53.544Z,159105.69
2023-05-19T01:15:21.535Z,159115.06
2023-05-19T01:17:57.171Z,159124.38
2023-05-19T01:20:33.424Z,159099.03
2023-05-19T01:23:07.793Z,159111.03
2023-05-19T01:25:48.393Z,159113.75
2023-05-19T01:28:43.100Z,159112.38
2023-05-19T01:31:12.840Z,159096.38
2023-05-19T01:33:41.895Z,159092.41
2023-05-19T01:36:12.884Z,159079.06
2023-05-19T01:38:41.207Z,159077.69
2023-05-19T01:41:10.300Z,159084.38
2023-05-19T01:43:38.694Z,159092.41
2023-05-19T01:46:07.152Z,159091.03
2023-05-19T01:48:35.553Z,159089.72
2023-05-19T01:51:03.328Z,159085.75
2023-05-19T01:53:31.686Z,159080.38
2023-05-19T01:56:01.319Z,159077.69
2023-05-19T01:58:46.051Z,159083.03
2023-05-19T02:01:32.516Z,159072.41
2023-05-19T02:04:40.458Z,159049.69
2023-05-19T02:07:16.152Z,159044.38
2023-05-19T02:09:54.527Z,159041.69
2023-05-19T02:12:41.570Z,159047.03
2023-05-19T02:15:16.543Z,159035.03
2023-05-19T02:17:52.150Z,159032.38
2023-05-19T02:20:22.549Z,159028.34
2023-05-19T02:22:51.107Z,159027.03
2023-05-19T02:25:19.663Z,159029.72
2023-05-19T02:27:49.448Z,159021.69
2023-05-19T02:30:17.609Z,159015.06
2023-05-19T02:32:46.978Z,159019.03
2023-05-19T02:35:15.474Z,159011.03
2023-05-19T02:37:44.003Z,159011.03
2023-05-19T02:40:12.328Z,159004.38
2023-05-19T02:42:40.007Z,159013.69
2023-05-19T02:45:09.007Z,159016.38
2023-05-19T02:47:37.289Z,159011.03
2023-05-19T02:50:06.617Z,159013.69
2023-05-19T02:52:34.485Z,159017.72
2023-05-19T02:55:02.737Z,159028.34
2023-05-19T02:57:32.005Z,159037.72
2023-05-19T03:00:00.196Z,159025.69
2023-05-19T03:02:28.040Z,159052.38
2023-05-19T03:04:56.525Z,159059.06
2023-05-19T03:07:25.512Z,159064.41
2023-05-19T03:09:53.991Z,159056.34
2023-05-19T03:12:22.385Z,159075.03
2023-05-19T03:14:50.649Z,159077.69
2023-05-19T03:17:18.299Z,159072.41
2023-05-19T03:19:46.520Z,159077.69
2023-05-19T03:22:14.317Z,159079.06
2023-05-19T03:24:42.754Z,159059.06
2023-05-19T03:27:13.107Z,159087.06
2023-05-19T03:29:41.430Z,159073.72
2023-05-19T03:32:09.495Z,159085.75
2023-05-19T03:34:38.111Z,159080.38
2023-05-19T03:37:06.474Z,159071.06
2023-05-19T03:39:37.679Z,159061.69
2023-05-19T03:42:05.714Z,159073.72
2023-05-19T03:44:33.854Z,159077.69
2023-05-19T03:47:01.268Z,159065.72
2023-05-19T03:49:48.542Z,159053.69
2023-05-19T03:52:34.861Z,159065.72
2023-05-19T03:55:21.744Z,159065.72
2023-05-19T03:57:49.725Z,159065.72
2023-05-19T04:00:18.137Z,159064.41
2023-05-19T04:02:46.038Z,159056.34
2023-05-19T04:05:14.839Z,159067.03
2023-05-19T04:07:43.317Z,159056.34
2023-05-19T04:10:12.285Z,159073.72
2023-05-19T04:12:40.507Z,159061.69
2023-05-19T04:15:11.602Z,159064.41
2023-05-19T04:17:40.147Z,159067.03
2023-05-19T04:20:08.831Z,159063.03
2023-05-19T04:22:36.547Z,159064.41
2023-05-19T04:25:05.229Z,159067.03
2023-05-19T04:27:36.846Z,159076.38
2023-05-19T04:30:06.412Z,159064.41
2023-05-19T04:32:34.453Z,159076.38
2023-05-19T04:35:03.719Z,159087.06
2023-05-19T04:37:32.538Z,159096.38
2023-05-19T04:40:00.456Z,159093.72
2023-05-19T04:42:30.984Z,159100.41
2023-05-19T04:45:03.609Z,159115.06
2023-05-19T04:47:37.154Z,159103.06
2023-05-19T04:50:07.706Z,159109.72
2023-05-19T04:52:36.595Z,159128.41
2023-05-19T04:55:07.085Z,159117.72
2023-05-19T04:57:35.430Z,159104.38
2023-05-19T05:00:10.503Z,159123.06
2023-05-19T05:02:46.925Z,159128.41
2023-05-19T05:05:20.382Z,159112.38
2023-05-19T05:07:47.917Z,159128.41
2023-05-19T05:10:16.742Z,159112.38
2023-05-19T05:12:45.143Z,159109.72
2023-05-19T05:15:13.988Z,159085.75
2023-05-19T05:17:42.404Z,159072.41
2023-05-19T05:20:13.078Z,159072.41
2023-05-19T05:22:42.356Z,159087.06
2023-05-19T05:25:12.134Z,159096.38
2023-05-19T05:27:39.828Z,159093.72
2023-05-19T05:30:09.979Z,159085.75
2023-05-19T05:32:39.157Z,159085.75
2023-05-19T05:35:13.486Z,159091.03
2023-05-19T05:37:41.850Z,159108.41
2023-05-19T05:40:10.500Z,159101.72
2023-05-19T05:42:38.129Z,159133.72
2023-05-19T05:45:07.432Z,159128.41
2023-05-19T05:47:40.149Z,159148.38
2023-05-19T05:50:11.081Z,159161.72
2023-05-19T05:52:40.420Z,159197.78
2023-05-19T05:55:12.336Z,159187.09
2023-05-19T05:57:43.540Z,159215.09
2023-05-19T06:00:16.156Z,159253.78
2023-05-19T06:02:47.844Z,159224.44
2023-05-19T06:05:18.318Z,159253.78
2023-05-19T06:07:47.729Z,159235.13
2023-05-19T06:10:21.620Z,159261.81
2023-05-19T06:12:51.098Z,159269.81
2023-05-19T06:15:19.529Z,159232.44
2023-05-19T06:18:00.725Z,159232.44
2023-05-19T06:20:29.477Z,159229.78
2023-05-19T06:22:58.346Z,159224.44
2023-05-19T06:25:28.394Z,159243.13
2023-05-19T06:27:57.644Z,159263.16
2023-05-19T06:30:26.390Z,159267.13
2023-05-19T06:33:06.061Z,159267.13
2023-05-19T06:35:34.728Z,159288.53
2023-05-19T06:38:02.774Z,159317.94
2023-05-19T06:40:31.496Z,159332.59
2023-05-19T06:42:59.247Z,159333.94
2023-05-19T06:45:46.470Z,159323.22
2023-05-19T06:48:14.407Z,159349.94
2023-05-19T06:50:42.728Z,159361.94
2023-05-19T06:53:10.616Z,159361.94
2023-05-19T06:55:50.715Z,159344.56
2023-05-19T06:58:27.451Z,159365.94
2023-05-19T07:00:56.122Z,159365.94
2023-05-19T07:03:27.843Z,159396.66
2023-05-19T07:05:56.557Z,159396.66
2023-05-19T07:08:24.395Z,159373.97
2023-05-19T07:10:53.261Z,159373.97
2023-05-19T07:13:21.546Z,159384.63
2023-05-19T07:15:50.176Z,159376.63
2023-05-19T07:18:18.852Z,159355.28
2023-05-19T07:20:47.077Z,159367.31
2023-05-19T07:23:17.282Z,159337.91
2023-05-19T07:25:47.748Z,159327.25
2023-05-19T07:28:15.609Z,159312.56
2023-05-19T07:30:44.301Z,159335.25
2023-05-19T07:33:12.088Z,159351.25
2023-05-19T07:35:40.613Z,159391.31
2023-05-19T07:38:08.503Z,159384.63
2023-05-19T07:40:37.004Z,159405.97
2023-05-19T07:43:04.843Z,159416.69
2023-05-19T07:45:33.386Z,159446.03
2023-05-19T07:48:01.520Z,159452.72
2023-05-19T07:50:30.642Z,159436.66
2023-05-19T07:52:58.570Z,159451.34
2023-05-19T07:55:26.929Z,159482.09
2023-05-19T07:57:54.724Z,159466.06
2023-05-19T08:00:23.348Z,159446.03
2023-05-19T08:02:51.322Z,159480.75
2023-05-19T08:05:19.704Z,159499.41
2023-05-19T08:07:47.563Z,159510.13
2023-05-19T08:10:16.240Z,159476.72
2023-05-19T08:12:44.791Z,159472.75
2023-05-19T08:15:13.441Z,159456.69
2023-05-19T08:17:41.293Z,159456.69
2023-05-19T08:20:10.685Z,159443.34
2023-05-19T08:22:38.772Z,159434.03
2023-05-19T08:25:07.800Z,159442.03
2023-05-19T08:27:36.035Z,159452.72
2023-05-19T08:30:04.594Z,159424.69
2023-05-19T08:32:32.544Z,159432.69
2023-05-19T08:35:00.974Z,159424.69
2023-05-19T08:37:28.757Z,159407.31
2023-05-19T08:39:57.532Z,159414.00
2023-05-19T08:42:25.884Z,159411.34
2023-05-19T08:44:54.172Z,159405.97
2023-05-19T08:47:23.347Z,159427.34
2023-05-19T08:49:54.091Z,159446.03
2023-05-19T08:52:31.515Z,159444.72
2023-05-19T08:55:04.981Z,159440.69
2023-05-19T08:57:33.356Z,159462.06
2023-05-19T09:00:01.723Z,159484.75
2023-05-19T09:02:30.168Z,159486.06
2023-05-19T09:04:59.064Z,159504.78
2023-05-19T09:07:27.590Z,159528.78
2023-05-19T09:09:56.599Z,159560.84
2023-05-19T09:12:24.274Z,159600.94
2023-05-19T09:14:53.239Z,159634.28
2023-05-19T09:17:21.445Z,159640.97
2023-05-19T09:19:50.008Z,159669.03
2023-05-19T09:22:19.736Z,159646.31
2023-05-19T09:24:48.557Z,159645.00
2023-05-19T09:27:23.041Z,159646.31
2023-05-19T09:29:51.670Z,159662.34
2023-05-19T09:32:27.382Z,159698.50
2023-05-19T09:34:55.908Z,159723.84
2023-05-19T09:37:24.733Z,159718.50
2023-05-19T09:39:53.806Z,159690.44
2023-05-19T09:42:30.071Z,159719.88
2023-05-19T09:45:02.467Z,159709.16
2023-05-19T09:47:38.393Z,159710.47
2023-05-19T09:50:10.977Z,159743.91
2023-05-19T09:52:41.301Z,159733.19
2023-05-19T09:55:11.316Z,159751.91
2023-05-19T09:57:40.726Z,159777.31
2023-05-19T10:00:19.270Z,159801.34
2023-05-19T10:02:48.775Z,159832.06
2023-05-19T10:05:20.434Z,159846.81
2023-05-19T10:07:52.974Z,159841.44
2023-05-19T10:10:22.527Z,159826.75
2023-05-19T10:12:51.054Z,159818.75
2023-05-19T10:15:29.535Z,159817.38
2023-05-19T10:17:57.869Z,159846.81
2023-05-19T10:20:27.063Z,159844.09
2023-05-19T10:22:55.135Z,159846.81
2023-05-19T10:25:23.451Z,159828.06
2023-05-19T10:27:58.760Z,159801.34
2023-05-19T10:30:30.483Z,159790.69
2023-05-19T10:33:00.914Z,159798.69
2023-05-19T10:35:48.124Z,159826.75
2023-05-19T10:38:36.724Z,159834.75
2023-05-19T10:41:17.398Z,159862.81
2023-05-19T10:43:53.218Z,159858.78
2023-05-19T10:46:25.706Z,159876.19
2023-05-19T10:48:54.516Z,159869.50
2023-05-19T10:51:31.653Z,159913.59
2023-05-19T10:54:03.122Z,159925.66
2023-05-19T10:56:36.799Z,159917.63
2023-05-19T10:59:04.553Z,159924.31
2023-05-19T11:01:37.738Z,159960.41
2023-05-19T11:04:14.460Z,159997.81
2023-05-19T11:06:51.941Z,160017.88
2023-05-19T11:09:28.352Z,160005.84
2023-05-19T11:12:04.201Z,159996.50
2023-05-19T11:14:32.901Z,159997.81
2023-05-19T11:17:01.533Z,160031.25
2023-05-19T11:19:31.782Z,160033.91
2023-05-19T11:22:13.565Z,160059.38
2023-05-19T11:24:46.887Z,160088.78
2023-05-19T11:27:31.841Z,160083.44
2023-05-19T11:30:15.042Z,160045.97
2023-05-19T11:32:44.496Z,160004.50
2023-05-19T11:35:13.021Z,160015.16
2023-05-19T11:37:42.916Z,160056.69
2023-05-19T11:40:11.560Z,160076.75
2023-05-19T11:42:39.466Z,160072.75
2023-05-19T11:45:08.995Z,160058.06
2023-05-19T11:47:50.981Z,160041.91
2023-05-19T11:50:26.402Z,160005.84
2023-05-19T11:52:55.241Z,160033.91
2023-05-19T11:55:23.707Z,160031.25
2023-05-19T11:58:05.244Z,160076.75
2023-05-19T12:00:40.205Z,160107.53
2023-05-19T12:03:09.674Z,160110.19
2023-05-19T12:05:42.752Z,160098.13
2023-05-19T12:08:12.361Z,160104.81
2023-05-19T12:10:41.412Z,160103.50
2023-05-19T12:13:10.568Z,160116.88
2023-05-19T12:15:39.623Z,160102.16
2023-05-19T12:18:08.079Z,160118.19
2023-05-19T12:20:36.542Z,160111.50
2023-05-19T12:23:05.238Z,160107.53
2023-05-19T12:25:33.760Z,160130.25
2023-05-19T12:28:05.955Z,160134.22
2023-05-19T12:30:34.942Z,160112.84
2023-05-19T12:33:04.111Z,160143.63
2023-05-19T12:35:36.433Z,160128.91
2023-05-19T12:38:05.169Z,160143.63
2023-05-19T12:40:38.022Z,160127.53
2023-05-19T12:43:07.160Z,160112.84
2023-05-19T12:45:39.094Z,160086.09
2023-05-19T12:48:12.738Z,160076.75
2023-05-19T12:50:40.485Z,160076.75
2023-05-19T12:53:09.800Z,160111.50
2023-05-19T12:55:41.213Z,160114.16
2023-05-19T12:58:09.928Z,160123.56
2023-05-19T13:00:45.719Z,160146.28
2023-05-19T13:03:18.388Z,160163.66
2023-05-19T13:05:48.068Z,160205.13
2023-05-19T13:08:20.697Z,160195.75
2023-05-19T13:10:49.984Z,160210.47
2023-05-19T13:13:18.468Z,160189.06
2023-05-19T13:15:49.494Z,160189.06
2023-05-19T13:18:18.583Z,160144.97
2023-05-19T13:20:47.514Z,160131.56
2023-05-19T13:23:16.483Z,160163.66
2023-05-19T13:25:45.023Z,160181.06
2023-05-19T13:28:13.005Z,160174.38
2023-05-19T13:30:42.124Z,160197.09
2023-05-19T13:33:10.432Z,160191.72
2023-05-19T13:35:38.936Z,160202.47
2023-05-19T13:38:11.625Z,160173.03
2023-05-19T13:40:41.147Z,160169.00
2023-05-19T13:43:10.126Z,160194.44
2023-05-19T13:45:38.324Z,160226.50
2023-05-19T13:48:07.691Z,160219.81
2023-05-19T13:50:36.736Z,160210.47
2023-05-19T13:53:05.375Z,160221.19
2023-05-19T13:55:33.839Z,160242.59
2023-05-19T13:58:01.976Z,160239.91
2023-05-19T14:00:32.554Z,160229.22
2023-05-19T14:03:01.009Z,160218.50
2023-05-19T14:05:29.635Z,160230.53
2023-05-19T14:07:58.300Z,160258.63
2023-05-19T14:10:26.563Z,160207.81
2023-05-19T14:15:34.491Z,160276.00
2023-05-19T14:18:03.139Z,160273.34
2023-05-19T14:20:32.668Z,160253.28
2023-05-19T14:23:01.110Z,160261.28
2023-05-19T14:25:29.395Z,160259.97
2023-05-19T14:27:57.541Z,160234.59
2023-05-19T14:30:25.976Z,160256.00
2023-05-19T14:32:53.866Z,160251.94
2023-05-19T14:35:23.514Z,160272.03
2023-05-19T14:37:52.293Z,160273.34
2023-05-19T14:40:20.604Z,160268.00
2023-05-19T14:42:48.440Z,160238.56
2023-05-19T14:45:16.790Z,160246.59
2023-05-19T14:47:45.249Z,160183.72
2023-05-19T14:50:14.022Z,160201.13
2023-05-19T14:52:42.340Z,160175.69
2023-05-19T14:55:14.009Z,160163.66
2023-05-19T14:57:41.999Z,160193.13
2023-05-19T15:00:10.685Z,160182.38
2023-05-19T15:02:39.026Z,160178.41
2023-05-19T15:05:08.774Z,160158.34
2023-05-19T15:07:37.193Z,160138.28
2023-05-19T15:10:06.186Z,160138.28
2023-05-19T15:12:34.545Z,160131.56
2023-05-19T15:15:02.886Z,160157.00
2023-05-19T15:17:31.461Z,160167.69
2023-05-19T15:19:59.798Z,160167.69
2023-05-19T15:22:27.645Z,160158.34
2023-05-19T15:24:56.203Z,160165.03
2023-05-19T15:27:24.060Z,160178.41
2023-05-19T15:29:52.405Z,160181.06
2023-05-19T15:32:20.436Z,160186.41
2023-05-19T15:34:49.113Z,160163.66
2023-05-19T15:37:17.462Z,160157.00
2023-05-19T15:39:46.197Z,160147.63
2023-05-19T15:42:13.961Z,160148.94
2023-05-19T15:44:41.999Z,160150.31
2023-05-19T15:47:10.329Z,160159.66
2023-05-19T15:49:38.908Z,160173.03
2023-05-19T15:52:07.181Z,160179.72
2023-05-19T15:54:35.432Z,160181.06
2023-05-19T15:57:03.424Z,160186.41
2023-05-19T15:59:31.883Z,160167.69
2023-05-19T16:01:59.764Z,160177.03
2023-05-19T16:04:28.408Z,160178.41
2023-05-19T16:06:56.656Z,160177.03
2023-05-19T16:09:25.491Z,160185.09
2023-05-19T16:11:53.234Z,160171.72
2023-05-19T16:14:21.813Z,160181.06
2023-05-19T16:16:49.783Z,160185.09
2023-05-19T16:19:18.435Z,160185.09
2023-05-19T16:21:46.548Z,160190.41
2023-05-19T16:24:14.938Z,160194.44
2023-05-19T16:26:42.997Z,160163.66
2023-05-19T16:29:11.180Z,160213.13
2023-05-19T16:31:39.104Z,160203.78
2023-05-19T16:34:07.647Z,160202.47
2023-05-19T16:36:36.755Z,160214.50
2023-05-19T16:39:05.447Z,160215.84
2023-05-19T16:41:33.159Z,160199.81
2023-05-19T16:44:03.135Z,160215.84
2023-05-19T16:46:31.649Z,160225.19
2023-05-19T16:48:59.985Z,160237.25
2023-05-19T16:51:28.352Z,160245.25
2023-05-19T16:53:56.560Z,160253.28
2023-05-19T16:56:24.740Z,160251.94
2023-05-19T16:58:55.006Z,160241.22
2023-05-19T17:01:23.162Z,160222.53
2023-05-19T17:03:51.889Z,160226.50
2023-05-19T17:06:19.988Z,160230.53
2023-05-19T17:08:48.280Z,160235.91
2023-05-19T17:11:16.406Z,160239.91
2023-05-19T17:13:46.581Z,160238.56
2023-05-19T17:16:15.223Z,160237.25
2023-05-19T17:18:44.144Z,160227.88
2023-05-19T17:21:12.301Z,160233.22
2023-05-19T17:23:40.540Z,160225.19
2023-05-19T17:26:08.994Z,160198.41
2023-05-19T17:28:37.554Z,160226.50
2023-05-19T17:31:17.593Z,160226.50
2023-05-19T17:33:46.063Z,160229.22
2023-05-19T17:36:14.563Z,160233.22
2023-05-19T17:38:43.103Z,160218.50
2023-05-19T17:41:11.766Z,160223.84
2023-05-19T17:43:40.937Z,160210.47
2023-05-19T17:46:10.315Z,160195.75
2023-05-19T17:48:40.304Z,160191.72
2023-05-19T17:51:08.489Z,160190.41
2023-05-19T17:53:37.102Z,160181.06
2023-05-19T17:56:09.094Z,160183.72
2023-05-19T17:58:37.550Z,160193.13
2023-05-19T18:01:06.229Z,160194.44
2023-05-19T18:03:34.686Z,160197.09
2023-05-19T18:06:03.400Z,160189.06
2023-05-19T18:08:32.341Z,160191.72
2023-05-19T18:11:00.969Z,160186.41
2023-05-19T18:13:28.858Z,160171.72
2023-05-19T18:15:59.513Z,160167.69
2023-05-19T18:18:27.661Z,160162.31
2023-05-19T18:20:55.928Z,160147.63
2023-05-19T18:23:24.019Z,160146.28
2023-05-19T18:25:53.480Z,160127.53
2023-05-19T18:28:21.825Z,160108.84
2023-05-19T18:31:04.755Z,160104.81
2023-05-19T18:33:33.022Z,160098.13
2023-05-19T18:36:01.595Z,160114.16
2023-05-19T18:38:29.602Z,160118.19
2023-05-19T18:40:57.896Z,160111.50
2023-05-19T18:43:25.586Z,160114.16
2023-05-19T18:45:57.341Z,160127.53
2023-05-19T18:48:28.467Z,160130.25
2023-05-19T18:50:57.505Z,160110.19
2023-05-19T18:53:25.519Z,160104.81
2023-05-19T18:55:53.934Z,160111.50
2023-05-19T18:58:22.373Z,160103.50
2023-05-19T19:00:51.023Z,160095.47
2023-05-19T19:03:18.876Z,160100.84
2023-05-19T19:05:54.728Z,160100.84
2023-05-19T19:08:22.916Z,160096.81
2023-05-19T19:10:52.619Z,160088.78
2023-05-19T19:13:21.365Z,160084.75
2023-05-19T19:15:49.614Z,160084.75
2023-05-19T19:18:17.690Z,160071.38
2023-05-19T19:20:46.569Z,160054.03
2023-05-19T19:23:14.310Z,160037.94
2023-05-19T19:25:43.196Z,160033.91
2023-05-19T19:28:11.124Z,160035.25
2023-05-19T19:30:39.756Z,160028.53
2023-05-19T19:33:07.653Z,160027.22
2023-05-19T19:35:36.255Z,160016.56
2023-05-19T19:38:04.093Z,160011.19
2023-05-19T19:40:33.023Z,160015.16
2023-05-19T19:43:01.115Z,160031.25
2023-05-19T19:45:29.282Z,160037.94
2023-05-19T19:47:57.638Z,160043.25
2023-05-19T19:50:26.356Z,160040.59
2023-05-19T19:52:54.245Z,160031.25
2023-05-19T19:55:22.769Z,160037.94
2023-05-19T19:57:51.598Z,160041.91
2023-05-19T20:00:20.262Z,160044.63
2023-05-19T20:03:03.615Z,160047.28
2023-05-19T20:05:33.698Z,160047.28
2023-05-19T20:08:01.494Z,160035.25
2023-05-19T20:10:30.519Z,160019.22
2023-05-19T20:12:59.349Z,160019.22
2023-05-19T20:15:27.933Z,160016.56
2023-05-19T20:17:56.665Z,160021.88
2023-05-19T20:20:25.268Z,160020.53
2023-05-19T20:22:53.083Z,160017.88
2023-05-19T20:25:21.139Z,160025.88
2023-05-19T20:27:49.513Z,160017.88
2023-05-19T20:30:17.380Z,160017.88
2023-05-19T20:32:47.170Z,159997.81
2023-05-19T20:35:16.851Z,159995.16
2023-05-19T20:37:48.299Z,159992.47
2023-05-19T20:40:16.202Z,159980.47
2023-05-19T20:42:44.589Z,159988.47
2023-05-19T20:45:12.426Z,159991.13
2023-05-19T20:47:40.992Z,159992.47
2023-05-19T20:50:09.014Z,160000.47
2023-05-19T20:52:37.472Z,159996.50
2023-05-19T20:55:05.732Z,160004.50
2023-05-19T20:57:34.441Z,159993.78
2023-05-19T21:00:02.757Z,159984.44
2023-05-19T21:02:31.428Z,159975.09
2023-05-19T21:04:59.560Z,159971.06
2023-05-19T21:07:27.752Z,159973.78
2023-05-19T21:09:56.688Z,159984.44
2023-05-19T21:12:25.620Z,159985.78
2023-05-19T21:14:53.576Z,159983.13
2023-05-19T21:17:22.116Z,159985.78
2023-05-19T21:19:50.654Z,159985.78
2023-05-19T21:22:19.206Z,159993.78
2023-05-19T21:24:47.046Z,159987.09
2023-05-19T21:27:15.609Z,159985.78
2023-05-19T21:29:43.395Z,159988.47
2023-05-19T21:32:11.986Z,159984.44
2023-05-19T21:34:39.744Z,159967.09
2023-05-19T21:37:08.298Z,159961.72
2023-05-19T21:39:36.298Z,159956.38
2023-05-19T21:42:04.924Z,159957.69
2023-05-19T21:44:33.148Z,159955.03
2023-05-19T21:47:01.548Z,159935.00
2023-05-19T21:49:29.768Z,159932.34
2023-05-19T21:51:58.365Z,159932.34
2023-05-19T21:54:26.259Z,159939.00
2023-05-19T21:56:54.553Z,159937.63
2023-05-19T21:59:25.032Z,159929.63
2023-05-19T22:01:53.257Z,159929.63
2023-05-19T22:04:22.025Z,159924.31
2023-05-19T22:06:50.455Z,159935.00
2023-05-19T22:09:19.437Z,159925.66
2023-05-19T22:11:47.796Z,159928.31
2023-05-19T22:14:15.652Z,159921.63
2023-05-19T22:16:44.404Z,159909.56
2023-05-19T22:19:12.964Z,159892.22
2023-05-19T22:21:42.600Z,159908.25
2023-05-19T22:24:10.882Z,159916.25
2023-05-19T22:26:43.003Z,159920.28
2023-05-19T22:29:15.389Z,159924.31
2023-05-19T22:31:43.606Z,159901.56
2023-05-19T22:34:12.903Z,159886.84
2023-05-19T22:36:41.838Z,159884.19
2023-05-19T22:39:09.529Z,159889.56
2023-05-19T22:41:37.656Z,159896.25
2023-05-19T22:44:05.674Z,159904.25
2023-05-19T22:46:34.448Z,159902.94
2023-05-19T22:49:02.708Z,159908.25
2023-05-19T22:51:31.460Z,159893.53
2023-05-19T22:53:59.200Z,159884.19
2023-05-19T22:56:27.691Z,159889.56
2023-05-19T22:58:55.577Z,159897.56
2023-05-19T23:01:23.915Z,159890.91
2023-05-19T23:03:51.673Z,159884.19
2023-05-19T23:06:19.701Z,159876.19
2023-05-19T23:08:47.706Z,159872.16
2023-05-19T23:11:16.101Z,159856.13
2023-05-19T23:13:43.823Z,159885.53
2023-05-19T23:16:11.838Z,159886.84
2023-05-19T23:18:39.786Z,159886.84
2023-05-19T23:21:08.200Z,159882.88
2023-05-19T23:23:37.396Z,159886.84
2023-05-19T23:26:05.996Z,159886.84
2023-05-19T23:28:33.727Z,159889.56
2023-05-19T23:31:02.136Z,159877.53
2023-05-19T23:33:30.132Z,159876.19
2023-05-19T23:35:59.926Z,159878.84
2023-05-19T23:38:28.267Z,159881.56
2023-05-19T23:40:56.620Z,159876.19
2023-05-19T23:43:24.506Z,159877.53
2023-05-19T23:45:52.681Z,159881.56
2023-05-19T23:48:20.360Z,159884.19
2023-05-19T23:50:48.681Z,159890.91
2023-05-19T23:53:16.477Z,159889.56
2023-05-19T23:55:45.291Z,159893.53
2023-05-19T23:58:13.163Z,159893.53
